Time;durP1;ratioP1;P1;durP2;ratioP2;P2;SDS_P1;SDS_P2;PMS_P1;PMS_P2;Temp;Humidity;BMP_temperature;BMP_pressure;BME280_temperature;BME280_humidity;BME280_pressure;Samples;Min_cycle;Max_cycle;Signal;HPM_P1;HPM_P2
2022/03/20 00:01:48;;;;;;;21.90;13.60;;;7.20;72.10;;;;;;5070281;28;20523;-73
2022/03/20 00:04:14;;;;;;;21.57;13.60;;;7.20;71.40;;;;;;5063716;28;20196;-73
2022/03/20 00:06:39;;;;;;;21.17;13.37;;;7.20;72.60;;;;;;5050881;28;20185;-73
2022/03/20 00:09:05;;;;;;;19.23;13.50;;;7.20;71.10;;;;;;5063187;28;20726;-73
2022/03/20 00:11:30;;;;;;;19.10;12.60;;;7.10;71.80;;;;;;5053549;28;20185;-73
2022/03/20 00:13:56;;;;;;;21.27;13.97;;;7.20;72.60;;;;;;5049487;28;20321;-72
2022/03/20 00:16:23;;;;;;;18.47;12.77;;;7.10;71.70;;;;;;5049791;28;20662;-73
2022/03/20 00:18:49;;;;;;;21.70;13.60;;;7.10;72.00;;;;;;5050121;28;20357;-72
2022/03/20 00:21:14;;;;;;;19.93;12.80;;;7.10;71.40;;;;;;5062756;28;20519;-72
2022/03/20 00:23:40;;;;;;;25.23;13.53;;;7.10;71.30;;;;;;5067594;28;20223;-72
2022/03/20 00:26:06;;;;;;;20.90;13.53;;;7.10;72.60;;;;;;5066951;28;20588;-72
2022/03/20 00:28:32;;;;;;;19.63;13.47;;;7.10;70.90;;;;;;5063312;28;20195;-73
2022/03/20 00:30:58;;;;;;;22.23;13.90;;;7.10;70.10;;;;;;5080203;28;20425;-73
2022/03/20 00:33:24;;;;;;;24.70;13.50;;;7.10;70.40;;;;;;5070297;28;20639;-73
2022/03/20 00:35:50;;;;;;;21.10;13.90;;;7.10;70.50;;;;;;5049435;28;20177;-73
2022/03/20 00:38:16;;;;;;;20.77;13.40;;;7.20;70.50;;;;;;5063433;28;20196;-73
2022/03/20 00:40:43;;;;;;;23.17;13.30;;;7.10;69.20;;;;;;5068666;28;20423;-73
2022/03/20 00:43:09;;;;;;;22.07;13.97;;;7.20;69.80;;;;;;5058987;28;20199;-73
2022/03/20 00:45:35;;;;;;;23.80;13.30;;;7.10;69.90;;;;;;5065527;28;20427;-73
2022/03/20 00:48:01;;;;;;;20.90;13.60;;;7.10;70.00;;;;;;5048744;28;20185;-74
2022/03/20 00:50:27;;;;;;;24.70;13.93;;;7.10;69.60;;;;;;5058846;28;20196;-73
2022/03/20 00:52:52;;;;;;;21.07;13.63;;;7.10;70.40;;;;;;5063580;28;20609;-73
2022/03/20 00:55:18;;;;;;;22.00;14.03;;;7.10;69.50;;;;;;5049447;28;20428;-72
2022/03/20 00:57:43;;;;;;;24.43;13.20;;;7.10;70.00;;;;;;5048985;28;20303;-72
2022/03/20 01:00:10;;;;;;;21.10;13.70;;;7.10;69.40;;;;;;5075429;28;20195;-73
2022/03/20 01:02:40;;;;;;;22.90;13.93;;;7.00;70.40;;;;;;5070975;28;20218;-73
2022/03/20 01:05:06;;;;;;;19.87;13.60;;;7.00;69.80;;;;;;5065697;28;20431;-72
2022/03/20 01:07:32;;;;;;;23.80;14.20;;;7.00;67.50;;;;;;5066914;28;20423;-72
2022/03/20 01:09:58;;;;;;;21.40;14.03;;;7.00;70.30;;;;;;5063928;28;20462;-72
2022/03/20 01:12:23;;;;;;;23.60;14.87;;;7.00;70.40;;;;;;5046791;28;20173;-73
2022/03/20 01:14:49;;;;;;;20.80;13.67;;;7.00;70.10;;;;;;5051558;28;20667;-72
2022/03/20 01:17:14;;;;;;;23.53;13.73;;;7.00;70.30;;;;;;5064995;28;20218;-73
2022/03/20 01:19:40;;;;;;;21.00;13.57;;;7.00;70.50;;;;;;5049058;28;20216;-73
2022/03/20 01:22:06;;;;;;;22.70;13.87;;;7.00;69.80;;;;;;5063659;28;20219;-73
2022/03/20 01:24:32;;;;;;;21.87;13.80;;;6.90;70.20;;;;;;5066911;28;20454;-72
2022/03/20 01:26:57;;;;;;;22.60;14.50;;;6.90;70.20;;;;;;5061727;28;20647;-73
2022/03/20 01:29:23;;;;;;;23.93;13.90;;;6.90;70.50;;;;;;5065258;28;20565;-72
2022/03/20 01:31:49;;;;;;;19.77;13.53;;;6.90;70.20;;;;;;5061204;28;20173;-72
2022/03/20 01:34:14;;;;;;;26.37;14.87;;;6.90;70.10;;;;;;5050609;28;20238;-73
2022/03/20 01:36:42;;;;;;;21.70;12.67;;;6.90;70.20;;;;;;5063499;28;20421;-72
2022/03/20 01:39:07;;;;;;;22.03;14.00;;;6.90;69.40;;;;;;5064695;28;20188;-72
2022/03/20 01:41:33;;;;;;;26.70;14.50;;;6.90;70.20;;;;;;5062934;28;20421;-73
2022/03/20 01:44:00;;;;;;;21.37;13.20;;;6.80;70.00;;;;;;5058472;28;20430;-72
2022/03/20 01:46:27;;;;;;;25.50;14.33;;;6.90;69.00;;;;;;5046618;28;20272;-72
2022/03/20 01:48:53;;;;;;;19.90;13.77;;;6.90;69.10;;;;;;5058732;28;20463;-72
2022/03/20 01:52:10;;;;;;;19.43;13.77;;;6.90;69.50;;;;;;5080046;28;20806;-72
2022/03/20 01:54:10;;;;;;;23.87;13.63;;;6.90;70.20;;;;;;5053174;28;20429;-73
2022/03/20 01:56:38;;;;;;;22.10;13.80;;;6.90;70.00;;;;;;5061314;28;20423;-72
2022/03/20 01:59:03;;;;;;;21.43;14.50;;;6.80;70.00;;;;;;5059104;28;20451;-72
2022/03/20 02:01:30;;;;;;;25.10;14.83;;;6.80;69.80;;;;;;5058424;28;20419;-72
2022/03/20 02:03:55;;;;;;;23.80;14.87;;;6.80;69.50;;;;;;5066682;28;20498;-72
2022/03/20 02:06:26;;;;;;;21.77;13.70;;;6.80;73.20;;;;;;5055881;28;20415;-72
2022/03/20 02:08:53;;;;;;;23.23;14.20;;;6.80;70.30;;;;;;5065868;28;20188;-72
2022/03/20 02:11:20;;;;;;;25.37;14.73;;;6.70;70.00;;;;;;5061071;28;20529;-72
2022/03/20 02:13:46;;;;;;;22.77;14.73;;;6.80;70.20;;;;;;5045892;28;20432;-73
2022/03/20 02:16:12;;;;;;;25.03;14.77;;;6.70;70.00;;;;;;5056801;28;20420;-72
2022/03/20 02:18:38;;;;;;;22.70;14.30;;;6.70;70.60;;;;;;5049783;28;20207;-72
2022/03/20 02:21:03;;;;;;;22.93;13.80;;;6.70;70.20;;;;;;5059167;28;20422;-73
2022/03/20 02:23:31;;;;;;;27.13;15.40;;;6.70;70.90;;;;;;5066339;28;20430;-73
2022/03/20 02:25:57;;;;;;;19.87;12.93;;;6.70;71.40;;;;;;5060608;28;20255;-73
2022/03/20 02:28:23;;;;;;;22.30;14.20;;;6.60;71.40;;;;;;5062747;28;20505;-72
2022/03/20 02:30:48;;;;;;;23.83;14.40;;;6.60;71.10;;;;;;5074590;28;20261;-73
2022/03/20 02:33:14;;;;;;;23.03;14.40;;;6.60;70.90;;;;;;5065376;28;20234;-72
2022/03/20 02:35:40;;;;;;;24.43;13.70;;;6.60;71.80;;;;;;5050757;28;20173;-72
2022/03/20 02:38:10;;;;;;;24.73;14.90;;;6.60;72.50;;;;;;5054311;28;20180;-73
2022/03/20 02:40:36;;;;;;;23.80;13.97;;;6.60;72.30;;;;;;5063376;28;20725;-72
2022/03/20 02:43:02;;;;;;;22.63;14.70;;;6.60;72.30;;;;;;5066081;28;20518;-72
2022/03/20 02:45:30;;;;;;;24.93;15.30;;;6.60;72.40;;;;;;5055311;28;20526;-72
2022/03/20 02:47:57;;;;;;;27.40;14.80;;;6.60;71.80;;;;;;5047579;28;20455;-72
2022/03/20 02:50:24;;;;;;;30.63;16.00;;;6.50;73.00;;;;;;5064393;28;21113;-72
2022/03/20 02:53:02;;;;;;;23.83;15.30;;;6.50;73.70;;;;;;5053935;28;20527;-72
2022/03/20 02:55:30;;;;;;;23.00;14.80;;;6.50;74.20;;;;;;5066996;28;20891;-72
2022/03/20 02:57:59;;;;;;;26.33;14.40;;;6.50;74.50;;;;;;5064348;28;20434;-72
2022/03/20 03:00:28;;;;;;;23.23;15.50;;;6.50;75.10;;;;;;5068199;28;20422;-72
2022/03/20 03:02:56;;;;;;;28.20;15.43;;;6.50;74.70;;;;;;5064880;28;20465;-72
2022/03/20 03:05:24;;;;;;;24.90;14.93;;;6.50;74.70;;;;;;5065413;28;20799;-72
2022/03/20 03:10:55;;;;;;;25.17;15.73;;;6.50;74.70;;;;;;5062962;28;20528;-72
2022/03/20 03:13:24;;;;;;;22.90;14.43;;;6.50;75.60;;;;;;5064072;28;20784;-72
2022/03/20 03:15:56;;;;;;;21.67;14.67;;;6.50;74.70;;;;;;5046176;28;20429;-72
2022/03/20 03:18:22;;;;;;;24.83;15.20;;;6.60;75.60;;;;;;5046740;28;20444;-72
2022/03/20 03:20:49;;;;;;;25.90;15.83;;;6.60;75.90;;;;;;5065146;28;20486;-73
2022/03/20 03:23:15;;;;;;;23.30;15.40;;;6.60;75.80;;;;;;5066848;28;20460;-72
2022/03/20 03:25:41;;;;;;;26.80;15.87;;;6.60;74.90;;;;;;5049819;28;20428;-72
2022/03/20 03:28:09;;;;;;;23.77;16.23;;;6.70;75.80;;;;;;5058768;28;20548;-72
2022/03/20 03:30:36;;;;;;;28.00;16.30;;;6.70;75.80;;;;;;5079385;28;20457;-72
2022/03/20 03:33:01;;;;;;;29.20;16.63;;;6.70;76.00;;;;;;5068185;28;20454;-72
2022/03/20 03:35:42;;;;;;;24.53;16.17;;;6.80;75.70;;;;;;5069464;28;20423;-72
2022/03/20 03:38:16;;;;;;;25.60;15.60;;;6.80;75.50;;;;;;5068566;28;20568;-72
2022/03/20 03:40:43;;;;;;;27.27;15.90;;;6.80;76.40;;;;;;5070747;28;20849;-72
2022/03/20 03:43:09;;;;;;;29.83;15.07;;;6.80;75.90;;;;;;5066596;28;20930;-72
2022/03/20 03:45:35;;;;;;;23.97;14.90;;;6.80;77.20;;;;;;5064761;28;20424;-72
2022/03/20 03:48:01;;;;;;;26.73;17.20;;;6.80;77.00;;;;;;5050003;28;20444;-72
2022/03/20 03:50:28;;;;;;;25.00;16.10;;;6.80;76.60;;;;;;5066287;28;20279;-71
2022/03/20 03:52:53;;;;;;;24.40;16.00;;;6.70;76.60;;;;;;5069225;28;20515;-71
2022/03/20 03:55:19;;;;;;;25.30;15.93;;;6.70;76.70;;;;;;5054668;28;20522;-72
2022/03/20 03:57:46;;;;;;;27.27;16.10;;;6.70;77.20;;;;;;5051954;28;20198;-71
2022/03/20 04:00:13;;;;;;;24.27;16.70;;;6.70;78.00;;;;;;5082077;28;20649;-72
2022/03/20 04:02:38;;;;;;;25.00;15.40;;;6.70;78.00;;;;;;5068296;28;20497;-72
2022/03/20 04:05:04;;;;;;;27.10;15.27;;;6.70;78.10;;;;;;5067936;28;20522;-72
2022/03/20 04:07:30;;;;;;;26.57;15.27;;;6.60;76.40;;;;;;5069136;28;20172;-72
2022/03/20 04:09:55;;;;;;;26.53;16.57;;;6.60;78.90;;;;;;5068620;28;20459;-72
2022/03/20 04:12:21;;;;;;;26.33;16.17;;;6.60;79.50;;;;;;5050396;28;20617;-72
2022/03/20 04:14:48;;;;;;;26.03;16.30;;;6.60;79.60;;;;;;5050177;28;20197;-72
2022/03/20 04:17:14;;;;;;;25.60;15.50;;;6.60;80.00;;;;;;5049360;28;20434;-71
2022/03/20 04:19:41;;;;;;;24.33;15.33;;;6.10;80.00;;;;;;5049361;28;20506;-73
2022/03/20 04:22:06;;;;;;;24.47;16.03;;;6.60;81.20;;;;;;5049646;28;20423;-72
2022/03/20 04:24:32;;;;;;;26.50;16.20;;;6.50;81.30;;;;;;5069362;28;20920;-72
2022/03/20 04:26:58;;;;;;;24.30;16.53;;;6.50;81.30;;;;;;5063077;28;20181;-72
2022/03/20 04:29:25;;;;;;;26.10;16.67;;;6.50;81.40;;;;;;5072180;28;20206;-72
2022/03/20 04:31:54;;;;;;;28.63;16.53;;;6.60;81.50;;;;;;5068717;28;20556;-71
2022/03/20 04:34:23;;;;;;;24.63;16.40;;;6.50;81.80;;;;;;5051612;28;20477;-72
2022/03/20 04:36:49;;;;;;;27.43;17.20;;;6.50;81.80;;;;;;5049043;28;20913;-71
2022/03/20 04:39:14;;;;;;;27.50;16.70;;;6.60;82.30;;;;;;5052388;28;20462;-72
2022/03/20 04:41:41;;;;;;;26.87;16.97;;;6.60;82.60;;;;;;5066818;28;20197;-71
2022/03/20 04:44:12;;;;;;;24.30;16.10;;;6.60;82.30;;;;;;5051465;28;20238;-71
2022/03/20 04:46:38;;;;;;;27.20;15.73;;;6.40;82.40;;;;;;5057576;28;21038;-72
2022/03/20 05:00:00;;;;;;;28.17;16.20;;;6.70;84.20;;;;;;5059773;28;20475;-71
2022/03/20 05:02:25;;;;;;;28.47;16.33;;;6.70;84.80;;;;;;5067160;28;20426;-72
2022/03/20 05:04:52;;;;;;;29.67;16.97;;;6.70;84.40;;;;;;5068706;28;20172;-72
2022/03/20 05:07:18;;;;;;;28.27;17.23;;;6.80;85.50;;;;;;5061437;28;20216;-72
2022/03/20 05:15:11;;;;;;;27.73;18.17;;;6.70;86.10;;;;;;5048612;28;20422;-72
2022/03/20 05:17:37;;;;;;;29.60;17.63;;;6.80;85.60;;;;;;5048202;28;20825;-72
2022/03/20 05:20:04;;;;;;;30.47;17.73;;;6.80;85.80;;;;;;5055499;28;20655;-72
2022/03/20 05:22:31;;;;;;;29.20;17.10;;;6.80;85.40;;;;;;5051178;28;20178;-72
2022/03/20 05:24:56;;;;;;;29.73;17.63;;;6.80;86.60;;;;;;5048586;28;20415;-72
2022/03/20 05:27:22;;;;;;;27.03;16.80;;;6.80;86.20;;;;;;5052015;28;20445;-72
2022/03/20 05:29:48;;;;;;;25.40;17.50;;;6.70;87.40;;;;;;5074696;28;20693;-72
2022/03/20 05:32:13;;;;;;;32.63;17.37;;;6.70;87.40;;;;;;5065071;28;20173;-72
2022/03/20 05:34:39;;;;;;;24.80;16.90;;;6.80;88.10;;;;;;5052938;28;20176;-72
2022/03/20 05:37:07;;;;;;;30.33;18.07;;;6.80;88.30;;;;;;5067886;28;20169;-72
2022/03/20 05:39:33;;;;;;;27.83;17.97;;;6.80;88.00;;;;;;5065112;28;20830;-72
2022/03/20 05:41:58;;;;;;;26.13;17.33;;;6.90;88.40;;;;;;5067936;28;20782;-72
2022/03/20 05:44:26;;;;;;;31.07;18.37;;;6.90;88.90;;;;;;5052081;28;20430;-72
2022/03/20 05:46:54;;;;;;;28.20;18.37;;;7.00;88.90;;;;;;5060084;28;20271;-72
2022/03/20 05:49:21;;;;;;;28.63;17.07;;;7.00;88.20;;;;;;5056619;28;20457;-71
2022/03/20 05:51:48;;;;;;;28.13;17.20;;;8.30;89.40;;;;;;5047249;28;20731;-72
2022/03/20 05:54:17;;;;;;;32.20;18.97;;;7.00;88.40;;;;;;5046805;28;20438;-72
2022/03/20 05:59:28;;;;;;;31.83;18.13;;;7.10;89.50;;;;;;5070849;28;20815;-72
2022/03/20 06:01:53;;;;;;;32.03;17.47;;;7.10;88.80;;;;;;5067982;28;20418;-72
2022/03/20 06:04:20;;;;;;;28.87;19.30;;;7.10;89.20;;;;;;5056249;28;20809;-72
2022/03/20 06:06:48;;;;;;;31.63;17.77;;;7.10;89.60;;;;;;5055909;28;20234;-72
2022/03/20 06:09:14;;;;;;;31.73;19.23;;;7.10;89.90;;;;;;5063213;28;20513;-72
2022/03/20 06:11:39;;;;;;;33.90;18.87;;;7.20;90.00;;;;;;5065540;28;20415;-72
2022/03/20 06:14:06;;;;;;;31.80;19.70;;;7.20;89.40;;;;;;5066646;28;20423;-71
2022/03/20 06:16:32;;;;;;;29.80;18.50;;;7.20;90.00;;;;;;5058116;28;20169;-71
2022/03/20 06:18:58;;;;;;;29.00;18.30;;;7.20;89.80;;;;;;5056155;28;20472;-71
2022/03/20 06:21:24;;;;;;;30.20;18.67;;;7.30;89.20;;;;;;5064821;28;20423;-71
2022/03/20 06:23:50;;;;;;;28.83;18.13;;;7.30;89.40;;;;;;5066283;28;20176;-71
2022/03/20 06:26:19;;;;;;;28.93;19.07;;;7.40;89.60;;;;;;5050369;28;20659;-71
2022/03/20 06:28:45;;;;;;;29.47;18.27;;;7.40;89.50;;;;;;5064896;28;21052;-72
2022/03/20 06:31:12;;;;;;;28.30;18.10;;;7.50;89.90;;;;;;5062727;28;20461;-72
2022/03/20 06:33:39;;;;;;;34.50;19.23;;;7.60;89.40;;;;;;5066631;28;20490;-71
2022/03/20 06:36:05;;;;;;;32.90;18.50;;;7.60;89.90;;;;;;5061578;28;20544;-72
2022/03/20 06:38:33;;;;;;;33.47;19.77;;;7.70;89.90;;;;;;5057680;28;20526;-71
2022/03/20 06:41:00;;;;;;;31.20;18.83;;;7.70;89.30;;;;;;5063764;28;20801;-72
2022/03/20 06:43:25;;;;;;;30.03;18.67;;;7.70;88.20;;;;;;5062313;28;20647;-71
2022/03/20 06:45:53;;;;;;;31.20;18.07;;;7.80;90.80;;;;;;5060309;28;20977;-72
2022/03/20 06:48:18;;;;;;;29.20;18.30;;;7.90;88.40;;;;;;5051203;28;20225;-71
2022/03/20 06:50:44;;;;;;;33.27;19.23;;;7.80;89.30;;;;;;5066863;28;20501;-70
2022/03/20 06:53:11;;;;;;;36.50;18.57;;;7.90;88.90;;;;;;5059723;28;20177;-71
2022/03/20 06:55:37;;;;;;;31.27;18.30;;;8.00;88.10;;;;;;5046304;28;20177;-71
2022/03/20 06:58:03;;;;;;;30.40;19.10;;;8.10;87.90;;;;;;5052595;28;20486;-71
2022/03/20 07:00:29;;;;;;;33.50;19.10;;;8.20;87.50;;;;;;5064740;28;20462;-71
2022/03/20 07:03:00;;;;;;;29.77;18.90;;;8.30;86.70;;;;;;5068970;28;20184;-72
2022/03/20 07:05:26;;;;;;;29.20;19.23;;;8.30;86.90;;;;;;5069243;28;20418;-72
2022/03/20 07:07:52;;;;;;;30.40;19.80;;;8.40;86.20;;;;;;5069939;28;20448;-71
2022/03/20 07:10:22;;;;;;;33.23;19.30;;;8.50;87.10;;;;;;5066546;28;20466;-71
2022/03/20 07:12:49;;;;;;;33.97;20.33;;;7.10;85.30;;;;;;5054766;28;20653;-71
2022/03/20 07:15:17;;;;;;;34.03;21.00;;;8.70;86.40;;;;;;5055403;28;20479;-71
2022/03/20 07:17:44;;;;;;;29.27;19.80;;;8.90;84.50;;;;;;5050971;28;20979;-72
2022/03/20 07:20:10;;;;;;;33.40;20.13;;;9.10;83.30;;;;;;5050578;28;20434;-72
2022/03/20 07:22:36;;;;;;;32.47;19.03;;;9.20;83.60;;;;;;5050571;28;20435;-72
2022/03/20 07:30:31;;;;;;;35.13;20.70;;;9.70;81.00;;;;;;5072451;28;20472;-72
2022/03/20 07:32:57;;;;;;;29.87;18.90;;;9.90;80.70;;;;;;5063540;28;20419;-72
2022/03/20 07:35:24;;;;;;;33.30;20.30;;;10.10;78.10;;;;;;5054094;28;20271;-72
2022/03/20 07:37:49;;;;;;;28.67;20.47;;;10.30;78.40;;;;;;5063410;28;20295;-72
2022/03/20 07:40:15;;;;;;;32.27;20.27;;;10.40;77.50;;;;;;5069951;28;20418;-72
2022/03/20 07:42:41;;;;;;;31.73;20.07;;;10.40;77.00;;;;;;5067870;28;20302;-73
2022/03/20 07:45:07;;;;;;;33.00;20.20;;;10.30;76.40;;;;;;5068621;28;20207;-72
2022/03/20 07:47:32;;;;;;;33.83;20.07;;;10.20;76.70;;;;;;5068658;28;20179;-73
2022/03/20 07:50:00;;;;;;;34.47;20.20;;;10.20;79.10;;;;;;5065113;28;20466;-73
2022/03/20 07:52:26;;;;;;;32.40;20.40;;;10.20;79.80;;;;;;5059524;28;20176;-73
2022/03/20 07:54:52;;;;;;;33.97;20.97;;;10.30;82.70;;;;;;5065088;28;20809;-73
2022/03/20 07:57:18;;;;;;;33.07;21.13;;;10.30;79.10;;;;;;5047491;28;20428;-73
2022/03/20 07:59:44;;;;;;;32.40;20.27;;;10.50;79.20;;;;;;5061921;28;20231;-73
2022/03/20 08:02:10;;;;;;;39.10;22.07;;;10.60;78.50;;;;;;5068067;28;20276;-73
2022/03/20 08:04:36;;;;;;;32.17;20.63;;;10.60;77.40;;;;;;5067498;28;20522;-73
2022/03/20 08:07:02;;;;;;;30.77;20.67;;;10.60;77.50;;;;;;5068740;28;20513;-73
2022/03/20 08:09:28;;;;;;;31.00;21.20;;;10.40;78.60;;;;;;5070129;28;20618;-73
2022/03/20 08:11:55;;;;;;;30.90;20.40;;;10.30;79.40;;;;;;5062779;28;20423;-73
2022/03/20 08:14:20;;;;;;;31.80;20.50;;;10.40;80.30;;;;;;5069863;28;20179;-73
2022/03/20 08:16:48;;;;;;;33.07;21.73;;;10.40;79.30;;;;;;5052103;28;20906;-73
2022/03/20 08:19:16;;;;;;;37.90;20.90;;;10.70;79.10;;;;;;5050176;28;20205;-73
2022/03/20 08:21:42;;;;;;;32.37;21.30;;;10.90;76.60;;;;;;5048091;28;20427;-73
2022/03/20 08:24:08;;;;;;;28.57;19.27;;;11.10;76.40;;;;;;5050115;28;20412;-74
2022/03/20 08:26:34;;;;;;;31.53;20.70;;;11.30;85.20;;;;;;5056383;28;20431;-73
2022/03/20 08:29:01;;;;;;;34.17;21.60;;;11.50;81.60;;;;;;5063058;28;20813;-73
2022/03/20 08:31:28;;;;;;;32.03;20.43;;;11.60;74.50;;;;;;5055055;28;20428;-73
2022/03/20 08:33:54;;;;;;;32.40;20.70;;;11.50;75.30;;;;;;5052470;28;20526;-73
2022/03/20 08:36:21;;;;;;;31.37;21.00;;;11.50;79.00;;;;;;5067798;28;20429;-73
2022/03/20 08:38:47;;;;;;;33.23;22.27;;;11.40;75.70;;;;;;5068635;28;20445;-73
2022/03/20 08:41:13;;;;;;;31.37;21.53;;;11.20;78.60;;;;;;5069541;28;20759;-73
2022/03/20 08:43:38;;;;;;;27.57;20.40;;;11.10;78.00;;;;;;5063186;28;20192;-74
2022/03/20 08:46:04;;;;;;;31.97;20.60;;;11.10;78.70;;;;;;5059120;28;20429;-74
2022/03/20 08:48:29;;;;;;;33.00;21.67;;;11.00;79.10;;;;;;5060895;28;20204;-72
2022/03/20 08:50:55;;;;;;;33.57;22.00;;;10.80;81.00;;;;;;5069272;28;20208;-71
2022/03/20 08:53:20;;;;;;;34.57;22.07;;;10.70;84.00;;;;;;5066008;28;20177;-72
2022/03/20 08:55:47;;;;;;;33.70;20.73;;;10.90;81.60;;;;;;5059398;28;20201;-74
2022/03/20 08:58:13;;;;;;;31.77;20.90;;;10.90;79.90;;;;;;5065401;28;20196;-73
2022/03/20 09:00:39;;;;;;;34.80;22.50;;;11.00;79.90;;;;;;5049938;28;20965;-73
2022/03/20 09:03:06;;;;;;;31.70;20.67;;;11.00;80.00;;;;;;5048487;28;20432;-73
2022/03/20 09:05:32;;;;;;;33.40;20.83;;;11.00;80.40;;;;;;5047739;28;20178;-74
2022/03/20 09:07:57;;;;;;;41.03;23.50;;;11.00;80.50;;;;;;5047795;28;20509;-73
2022/03/20 09:10:25;;;;;;;36.87;24.07;;;11.00;80.60;;;;;;5063759;28;20291;-74
2022/03/20 09:12:51;;;;;;;34.43;22.20;;;11.10;79.60;;;;;;5056767;28;20173;-74
2022/03/20 09:15:17;;;;;;;32.67;21.30;;;11.30;79.00;;;;;;5069561;28;20701;-73
2022/03/20 09:20:31;;;;;;;32.33;20.83;;;11.60;77.90;;;;;;5068514;28;20464;-74
2022/03/20 09:22:56;;;;;;;33.97;20.93;;;12.10;75.50;;;;;;5046858;28;20420;-73
2022/03/20 09:25:22;;;;;;;30.70;20.90;;;12.50;71.90;;;;;;5070757;28;20180;-73
2022/03/20 09:27:48;;;;;;;34.13;21.27;;;12.80;72.00;;;;;;5082038;28;20661;-73
2022/03/20 09:30:18;;;;;;;33.50;21.33;;;13.00;69.70;;;;;;5049186;28;20451;-73
2022/03/20 09:32:44;;;;;;;36.27;23.13;;;13.00;69.50;;;;;;5047228;28;20177;-73
2022/03/20 09:35:10;;;;;;;30.97;21.17;;;12.90;69.30;;;;;;5049092;28;20513;-73
2022/03/20 09:37:36;;;;;;;34.67;22.33;;;13.10;67.60;;;;;;5053199;28;20948;-73
2022/03/20 09:40:03;;;;;;;35.10;22.03;;;13.10;69.60;;;;;;5063478;28;20419;-73
2022/03/20 09:42:28;;;;;;;33.40;22.53;;;13.40;65.70;;;;;;5048310;28;20589;-73
2022/03/20 09:44:55;;;;;;;33.23;22.73;;;13.90;64.20;;;;;;5066705;28;20445;-73
2022/03/20 09:47:23;;;;;;;35.80;23.07;;;14.20;63.20;;;;;;5068948;28;20176;-73
2022/03/20 09:49:49;;;;;;;28.60;20.80;;;15.00;58.90;;;;;;5068537;28;20511;-74
2022/03/20 09:52:16;;;;;;;28.93;21.00;;;15.70;57.10;;;;;;5067893;28;20459;-73
2022/03/20 09:54:42;;;;;;;35.77;22.33;;;16.40;47.50;;;;;;5072986;28;20414;-73
2022/03/20 09:57:09;;;;;;;31.80;23.00;;;17.40;44.20;;;;;;5085321;28;20497;-74
2022/03/20 09:59:38;;;;;;;35.03;27.03;;;19.10;45.60;;;;;;5049536;28;20197;-74
2022/03/20 10:02:05;;;;;;;37.83;28.20;;;20.30;46.70;;;;;;5048057;28;20499;-74
2022/03/20 10:04:34;;;;;;;35.00;27.90;;;20.80;41.50;;;;;;5049244;28;20793;-74
2022/03/20 10:07:00;;;;;;;39.93;28.73;;;20.30;42.70;;;;;;5049537;28;20428;-73
2022/03/20 10:09:26;;;;;;;35.47;27.47;;;19.30;45.90;;;;;;5048950;28;20466;-74
2022/03/20 10:12:00;;;;;;;38.70;28.10;;;19.10;45.60;;;;;;5047531;28;20419;-74
2022/03/20 10:14:29;;;;;;;38.10;28.70;;;18.80;45.40;;;;;;5048899;28;20182;-74
2022/03/20 10:17:06;;;;;;;39.57;28.40;;;19.00;45.50;;;;;;5048017;28;20407;-74
2022/03/20 10:19:32;;;;;;;38.73;27.70;;;19.20;45.70;;;;;;5068489;28;20543;-74
2022/03/20 10:21:59;;;;;;;36.53;27.63;;;19.30;45.80;;;;;;5051502;28;20430;-73
2022/03/20 10:24:27;;;;;;;35.63;27.27;;;18.40;45.10;;;;;;5069435;28;20422;-73
2022/03/20 10:27:14;;;;;;;37.77;27.73;;;17.80;44.50;;;;;;5063383;28;20450;-74
2022/03/20 10:29:48;;;;;;;35.23;26.77;;;16.90;43.70;;;;;;5068473;28;20863;-73
2022/03/20 10:32:14;;;;;;;37.70;27.30;;;16.40;43.90;;;;;;5047972;28;20426;-74
2022/03/20 10:34:53;;;;;;;33.60;24.70;;;16.40;49.20;;;;;;5056169;28;20493;-73
2022/03/20 10:37:22;;;;;;;32.70;25.00;;;16.50;48.20;;;;;;5070695;28;20195;-73
2022/03/20 10:39:47;;;;;;;33.87;25.17;;;16.70;47.90;;;;;;5072537;28;20488;-73
2022/03/20 10:42:18;;;;;;;35.07;25.43;;;16.80;43.90;;;;;;5070396;28;20422;-74
2022/03/20 10:44:43;;;;;;;34.17;23.50;;;16.50;49.30;;;;;;5054327;28;20219;-73
2022/03/20 10:47:13;;;;;;;32.20;22.43;;;16.20;50.70;;;;;;5051987;28;20408;-73
2022/03/20 10:49:40;;;;;;;33.60;23.43;;;16.00;54.50;;;;;;5066076;28;20528;-73
2022/03/20 10:52:06;;;;;;;32.30;23.73;;;15.90;54.40;;;;;;5071224;28;20414;-73
2022/03/20 10:54:46;;;;;;;34.77;23.40;;;16.20;56.10;;;;;;5067976;28;20414;-73
2022/03/20 10:57:13;;;;;;;31.27;21.90;;;16.40;52.60;;;;;;5064099;28;20441;-73
2022/03/20 10:59:40;;;;;;;32.83;23.40;;;16.20;54.50;;;;;;5069685;28;20801;-73
2022/03/20 11:02:23;;;;;;;32.43;21.97;;;16.10;56.40;;;;;;5070281;28;20507;-73
2022/03/20 11:04:50;;;;;;;38.37;22.20;;;15.90;56.10;;;;;;5052567;28;20411;-73
2022/03/20 11:07:20;;;;;;;30.97;22.00;;;15.60;58.80;;;;;;5052592;28;20419;-73
2022/03/20 11:09:50;;;;;;;35.00;23.53;;;15.40;59.80;;;;;;5052284;28;20559;-73
2022/03/20 11:12:34;;;;;;;33.60;23.37;;;15.40;60.90;;;;;;5049807;28;20411;-74
2022/03/20 11:15:04;;;;;;;35.27;20.43;;;15.40;62.10;;;;;;5056418;28;20533;-74
2022/03/20 11:17:50;;;;;;;31.67;21.83;;;15.50;61.20;;;;;;5069375;28;20487;-74
2022/03/20 11:20:17;;;;;;;27.40;20.33;;;15.50;64.00;;;;;;5052495;28;20846;-74
2022/03/20 11:22:47;;;;;;;29.87;20.60;;;15.60;63.60;;;;;;5049865;28;20419;-73
2022/03/20 11:25:17;;;;;;;27.67;20.13;;;15.80;63.00;;;;;;5074018;28;20427;-73
2022/03/20 11:27:46;;;;;;;29.07;20.10;;;16.00;63.10;;;;;;5088857;28;20457;-73
2022/03/20 11:30:13;;;;;;;28.87;19.23;;;16.20;62.80;;;;;;5086515;28;20508;-74
2022/03/20 11:32:42;;;;;;;30.77;19.17;;;16.30;61.50;;;;;;5066989;28;20904;-74
2022/03/20 11:35:08;;;;;;;28.30;20.20;;;16.30;62.50;;;;;;5071993;28;20406;-73
2022/03/20 11:37:47;;;;;;;31.20;18.60;;;16.30;61.40;;;;;;5051089;28;20514;-74
2022/03/20 11:40:15;;;;;;;27.23;19.30;;;16.40;65.40;;;;;;5051847;28;20407;-74
2022/03/20 11:42:42;;;;;;;27.20;18.50;;;16.60;64.20;;;;;;5050979;28;20517;-74
2022/03/20 11:45:07;;;;;;;23.43;17.13;;;17.00;62.30;;;;;;5061624;28;20449;-73
2022/03/20 11:47:38;;;;;;;28.70;18.43;;;18.20;56.10;;;;;;5069781;28;20905;-73
2022/03/20 11:50:16;;;;;;;22.33;16.83;;;18.30;58.30;;;;;;5069250;28;20199;-74
2022/03/20 11:52:49;;;;;;;28.43;17.70;;;18.40;56.80;;;;;;5060489;28;20484;-73
2022/03/20 11:55:29;;;;;;;23.90;16.90;;;18.20;58.40;;;;;;5070634;28;20973;-74
2022/03/20 11:57:56;;;;;;;26.27;17.13;;;18.50;57.90;;;;;;5070916;28;20426;-74
2022/03/20 12:00:26;;;;;;;27.90;16.67;;;19.00;56.10;;;;;;5069870;28;20783;-74
2022/03/20 12:03:13;;;;;;;19.37;14.57;;;19.80;50.40;;;;;;5060477;28;20423;-74
2022/03/20 12:05:58;;;;;;;25.10;15.33;;;20.50;46.80;;;;;;5052739;28;21127;-74
2022/03/20 12:08:41;;;;;;;22.40;14.97;;;20.90;47.30;;;;;;5053727;28;20519;-74
2022/03/20 12:11:28;;;;;;;22.90;15.67;;;20.90;47.20;;;;;;5071040;28;20477;-74
2022/03/20 12:14:22;;;;;;;25.97;14.70;;;21.10;47.50;;;;;;5071059;28;20511;-74
2022/03/20 12:16:47;;;;;;;26.27;14.40;;;21.50;47.60;;;;;;5070226;28;20418;-74
2022/03/20 12:19:15;;;;;;;21.60;14.50;;;22.00;50.80;;;;;;5071146;28;20453;-74
2022/03/20 12:21:58;;;;;;;20.77;14.90;;;23.30;49.20;;;;;;5068394;28;20192;-74
2022/03/20 12:24:52;;;;;;;18.80;15.20;;;24.60;40.20;;;;;;5066682;28;20417;-74
2022/03/20 12:27:23;;;;;;;21.30;15.27;;;24.30;39.10;;;;;;5078047;28;20491;-74
2022/03/20 12:29:57;;;;;;;20.10;15.30;;;23.50;46.60;;;;;;5088059;28;20540;-74
2022/03/20 12:32:24;;;;;;;19.30;14.70;;;23.50;47.00;;;;;;5050169;28;20405;-74
2022/03/20 12:35:02;;;;;;;21.93;15.03;;;23.20;44.20;;;;;;5051386;28;20407;-74
2022/03/20 12:37:28;;;;;;;19.83;14.90;;;23.30;44.30;;;;;;5056691;28;20495;-74
2022/03/20 12:39:55;;;;;;;21.13;14.90;;;23.30;42.70;;;;;;5069244;28;20421;-75
2022/03/20 12:42:22;;;;;;;20.70;14.30;;;23.30;47.50;;;;;;5068379;28;20264;-74
2022/03/20 12:44:50;;;;;;;19.53;14.80;;;24.20;37.00;;;;;;5051720;28;20916;-74
2022/03/20 12:47:20;;;;;;;18.47;14.43;;;25.20;36.80;;;;;;5049427;28;20453;-75
2022/03/20 12:49:51;;;;;;;21.77;14.77;;;26.90;29.00;;;;;;5052189;28;20453;-75
2022/03/20 12:52:18;;;;;;;18.57;14.07;;;28.30;24.70;;;;;;5055580;28;20203;-75
2022/03/20 12:54:58;;;;;;;20.97;13.30;;;29.10;22.10;;;;;;5068464;28;20583;-75
2022/03/20 12:57:47;;;;;;;17.80;13.65;;;30.40;15.40;;;;;;5067579;28;20182;-75
2022/03/20 13:00:13;;;;;;;17.27;14.27;;;30.50;16.00;;;;;;5047985;28;20191;-75
2022/03/20 13:02:59;;;;;;;17.20;14.27;;;31.10;14.10;;;;;;5049467;28;20647;-75
2022/03/20 13:05:26;;;;;;;21.55;14.23;;;30.70;12.70;;;;;;5051351;28;20178;-75
2022/03/20 13:07:53;;;;;;;16.48;12.43;;;31.00;13.40;;;;;;5049554;28;20197;-75